Time;durP1;ratioP1;P1;durP2;ratioP2;P2;SDS_P1;SDS_P2;PMS_P1;PMS_P2;Temp;Humidity;BMP_temperature;BMP_pressure;BME280_temperature;BME280_humidity;BME280_pressure;Samples;Min_cycle;Max_cycle;Signal;HPM_P1;HPM_P2
2023/11/15 00:02:25;;;;;;;2.10;0.20;;;;;;;2.82;75.38;100605.94;4955637;28;20059;-71
2023/11/15 00:04:52;;;;;;;0.30;0.22;;;;;;;2.83;75.52;100615.41;4967219;28;20045;-71
2023/11/15 00:07:19;;;;;;;1.08;0.75;;;;;;;2.84;75.70;100606.81;4969778;28;20447;-71
2023/11/15 00:09:46;;;;;;;0.90;0.20;;;;;;;2.84;75.21;100614.53;4967033;28;20042;-71
2023/11/15 00:12:13;;;;;;;0.30;0.17;;;;;;;2.85;75.55;100615.44;4971446;28;20061;-80
2023/11/15 00:14:39;;;;;;;0.68;0.47;;;;;;;2.74;75.53;100597.25;4969750;28;20587;-81
2023/11/15 00:17:08;;;;;;;2.13;0.20;;;;;;;2.86;75.78;100612.84;4969664;28;20130;-81
2023/11/15 00:19:35;;;;;;;0.30;0.20;;;;;;;2.87;75.78;100616.28;4971571;28;20129;-81
2023/11/15 00:22:02;;;;;;;0.85;0.20;;;;;;;2.86;75.62;100618.00;4973967;28;20047;-78
2023/11/15 00:24:29;;;;;;;0.35;0.30;;;;;;;2.88;75.86;100624.06;4966217;28;20055;-78
2023/11/15 00:26:57;;;;;;;0.40;0.20;;;;;;;2.87;76.06;100622.31;4968848;28;20054;-78
2023/11/15 00:29:24;;;;;;;2.05;0.20;;;;;;;2.90;75.73;100613.75;4972813;28;20748;-78
2023/11/15 00:31:51;;;;;;;0.68;0.30;;;;;;;2.90;75.67;100624.94;4965550;28;20059;-78
2023/11/15 00:34:19;;;;;;;0.50;0.30;;;;;;;2.90;75.71;100617.22;4963751;28;20154;-78
2023/11/15 00:36:46;;;;;;;2.30;0.43;;;;;;;2.91;75.83;100621.50;4966616;28;20050;-79
2023/11/15 00:39:13;;;;;;;1.42;0.30;;;;;;;2.91;75.88;100624.09;4973473;28;20046;-78
2023/11/15 00:41:40;;;;;;;0.80;0.30;;;;;;;2.92;76.17;100620.66;4972594;28;20043;-78
2023/11/15 00:44:07;;;;;;;0.80;0.35;;;;;;;2.92;76.03;100618.06;4966228;28;20051;-79
2023/11/15 00:46:35;;;;;;;0.50;0.30;;;;;;;2.92;75.90;100628.38;4970901;28;20050;-78
2023/11/15 00:49:02;;;;;;;0.40;0.20;;;;;;;2.91;76.08;100618.94;4969753;28;20051;-78
2023/11/15 00:51:30;;;;;;;0.40;0.30;;;;;;;2.95;76.16;100621.53;4970031;28;20071;-79
2023/11/15 00:53:57;;;;;;;0.75;0.30;;;;;;;2.95;76.22;100626.69;4965007;28;20044;-78
2023/11/15 00:56:24;;;;;;;0.82;0.43;;;;;;;2.97;75.90;100630.16;4970147;28;20134;-78
2023/11/15 00:58:51;;;;;;;1.00;0.22;;;;;;;2.96;76.36;100625.84;4973326;28;20111;-78
2023/11/15 01:01:18;;;;;;;3.90;0.20;;;;;;;2.97;76.05;100625.00;4973053;28;20511;-79
2023/11/15 01:03:55;;;;;;;1.08;0.30;;;;;;;2.99;76.31;100631.03;4973358;28;20058;-78
2023/11/15 01:06:22;;;;;;;0.25;0.20;;;;;;;3.00;76.28;100637.94;4971994;28;20061;-78
2023/11/15 01:08:51;;;;;;;0.50;0.30;;;;;;;3.00;76.36;100635.34;4971617;28;20700;-79
2023/11/15 01:11:18;;;;;;;0.40;0.20;;;;;;;3.01;76.12;100642.25;4964298;28;20047;-78
2023/11/15 01:13:46;;;;;;;0.40;0.20;;;;;;;3.01;76.31;100644.81;4959580;28;20051;-79
2023/11/15 01:16:13;;;;;;;0.38;0.20;;;;;;;3.01;76.26;100645.69;4969320;28;20423;-78
2023/11/15 01:18:40;;;;;;;0.65;0.22;;;;;;;3.02;76.29;100649.16;4972059;28;20125;-78
2023/11/15 01:21:11;;;;;;;0.40;0.22;;;;;;;3.02;76.24;100649.16;4973176;28;20054;-81
2023/11/15 01:23:38;;;;;;;1.23;0.20;;;;;;;3.02;76.14;100649.16;4966112;28;20403;-72
2023/11/15 01:26:07;;;;;;;0.50;0.30;;;;;;;3.04;76.41;100657.75;4969297;28;20134;-72
2023/11/15 01:28:34;;;;;;;0.85;0.25;;;;;;;3.05;76.41;100651.75;4970807;28;20074;-72
2023/11/15 01:31:01;;;;;;;1.20;0.30;;;;;;;3.05;76.33;100651.75;4973466;28;20054;-72
2023/11/15 01:33:28;;;;;;;0.30;0.20;;;;;;;3.06;76.47;100661.22;4969495;28;20567;-81
2023/11/15 01:35:56;;;;;;;0.52;0.30;;;;;;;3.07;76.39;100662.94;4976453;28;20053;-81
2023/11/15 01:38:23;;;;;;;0.52;0.20;;;;;;;3.04;76.49;100650.88;4974274;28;20057;-82
2023/11/15 01:40:50;;;;;;;2.97;0.73;;;;;;;2.97;76.61;100641.34;4973861;28;20050;-81
2023/11/15 01:43:18;;;;;;;0.55;0.30;;;;;;;3.09;76.70;100661.25;4976826;28;20411;-81
2023/11/15 01:45:46;;;;;;;0.65;0.40;;;;;;;3.05;76.48;100650.03;4973823;28;20047;-81
2023/11/15 01:48:15;;;;;;;2.17;0.30;;;;;;;3.10;76.49;100668.13;4977544;28;20471;-81
2023/11/15 01:50:42;;;;;;;0.95;0.28;;;;;;;3.08;76.58;100662.13;4967361;28;20514;-82
2023/11/15 01:53:09;;;;;;;0.80;0.30;;;;;;;3.04;76.21;100657.75;4968841;28;20047;-81
2023/11/15 01:55:37;;;;;;;1.08;0.40;;;;;;;3.07;76.43;100662.94;4972553;28;20053;-81
2023/11/15 01:58:06;;;;;;;0.47;0.30;;;;;;;3.09;76.46;100666.41;4966836;28;20043;-81
2023/11/15 02:00:35;;;;;;;1.80;0.65;;;;;;;3.08;76.42;100659.53;4969394;28;20058;-81
2023/11/15 02:03:02;;;;;;;0.77;0.30;;;;;;;3.09;76.48;100671.56;4971484;28;20072;-81
2023/11/15 02:05:29;;;;;;;1.15;0.40;;;;;;;3.03;76.33;100663.78;4965532;28;20055;-81
2023/11/15 02:07:56;;;;;;;1.67;0.55;;;;;;;3.08;76.27;100681.03;4971486;28;20047;-81
2023/11/15 02:10:23;;;;;;;3.97;0.50;;;;;;;3.07;76.11;100675.84;4971894;28;20061;-81
2023/11/15 02:12:51;;;;;;;1.15;0.30;;;;;;;3.06;76.22;100680.16;4972517;28;20430;-81
2023/11/15 02:15:21;;;;;;;2.42;0.50;;;;;;;3.01;76.46;100675.78;4968020;28;20051;-81
2023/11/15 02:17:49;;;;;;;2.08;0.32;;;;;;;3.07;76.55;100688.75;4972011;28;20478;-81
2023/11/15 02:20:16;;;;;;;1.60;0.40;;;;;;;3.05;76.20;100682.72;4973461;28;20066;-80
2023/11/15 02:22:45;;;;;;;0.85;0.60;;;;;;;3.02;76.27;100675.81;4975899;28;20389;-81
2023/11/15 02:25:14;;;;;;;2.15;0.43;;;;;;;3.04;76.27;100689.56;4973187;28;20050;-81
2023/11/15 02:27:41;;;;;;;1.15;0.45;;;;;;;3.05;76.32;100693.06;4970941;28;20050;-81
2023/11/15 02:30:09;;;;;;;2.88;0.43;;;;;;;3.04;76.38;100699.03;4971429;28;20047;-80
2023/11/15 02:32:37;;;;;;;1.98;0.43;;;;;;;3.04;76.03;100696.47;4968392;28;20574;-78
2023/11/15 02:35:06;;;;;;;0.43;0.30;;;;;;;3.04;76.32;100712.81;4965992;28;20480;-78
2023/11/15 02:37:33;;;;;;;2.55;0.40;;;;;;;3.04;76.29;100715.38;4969753;28;20047;-78
2023/11/15 02:40:04;;;;;;;1.73;0.73;;;;;;;3.03;76.19;100716.25;4966478;28;20126;-78
2023/11/15 02:42:32;;;;;;;2.70;0.50;;;;;;;3.03;75.95;100717.97;4972764;28;20054;-71
2023/11/15 02:44:59;;;;;;;1.38;0.40;;;;;;;3.02;76.13;100717.09;4970052;28;20049;-72
2023/11/15 02:47:26;;;;;;;2.47;0.68;;;;;;;3.01;76.06;100719.66;4971729;28;20049;-72
2023/11/15 02:49:53;;;;;;;2.90;0.47;;;;;;;2.97;76.37;100720.47;4970328;28;20113;-72
2023/11/15 02:52:20;;;;;;;1.00;0.40;;;;;;;3.01;76.38;100719.66;4971933;28;20054;-72
2023/11/15 02:54:47;;;;;;;0.90;0.40;;;;;;;3.01;76.07;100719.66;4970371;28;20058;-72
2023/11/15 02:57:13;;;;;;;3.20;0.30;;;;;;;3.00;76.29;100720.50;4969640;28;20051;-72
2023/11/15 02:59:42;;;;;;;0.75;0.40;;;;;;;3.00;76.54;100728.25;4971006;28;20539;-72
2023/11/15 03:02:09;;;;;;;1.60;0.40;;;;;;;3.00;76.20;100733.41;4970154;28;20045;-72
2023/11/15 03:04:35;;;;;;;3.47;0.50;;;;;;;2.99;76.32;100736.81;4970151;28;20134;-72
2023/11/15 03:07:02;;;;;;;0.70;0.40;;;;;;;2.98;76.29;100741.13;4967623;28;20046;-71
2023/11/15 03:09:29;;;;;;;1.33;0.40;;;;;;;2.97;76.17;100730.81;4971199;28;20047;-72
2023/11/15 03:11:56;;;;;;;2.15;0.40;;;;;;;2.99;76.36;100736.81;4969927;28;20049;-71
2023/11/15 03:14:25;;;;;;;0.60;0.32;;;;;;;2.96;76.25;100737.69;4969475;28;20069;-72
2023/11/15 03:16:54;;;;;;;0.95;0.30;;;;;;;2.97;76.41;100735.97;4970042;28;20526;-72
2023/11/15 03:19:21;;;;;;;2.92;0.40;;;;;;;2.97;76.25;100743.69;4968564;28;20126;-71
2023/11/15 03:21:48;;;;;;;0.60;0.45;;;;;;;2.96;76.18;100741.94;4970125;28;20054;-72
2023/11/15 03:24:15;;;;;;;2.45;0.50;;;;;;;2.96;76.42;100741.94;4968391;28;20047;-71
2023/11/15 03:26:41;;;;;;;0.85;0.50;;;;;;;2.97;76.26;100746.28;4970475;28;20047;-72
2023/11/15 03:29:08;;;;;;;0.85;0.40;;;;;;;2.96;76.65;100744.53;4968208;28;20057;-71
2023/11/15 03:31:35;;;;;;;0.65;0.32;;;;;;;2.96;76.60;100747.09;4969283;28;20054;-72
2023/11/15 03:34:04;;;;;;;2.28;0.40;;;;;;;2.91;76.17;100736.75;4971091;28;20059;-71
2023/11/15 03:36:32;;;;;;;1.35;0.40;;;;;;;2.95;76.39;100745.38;4968855;28;20133;-72
2023/11/15 03:38:59;;;;;;;2.40;0.40;;;;;;;2.94;76.60;100749.69;4967692;28;20050;-71
2023/11/15 03:41:27;;;;;;;0.40;0.30;;;;;;;2.93;76.16;100753.09;4971208;28;20043;-74
2023/11/15 03:43:53;;;;;;;0.52;0.38;;;;;;;2.92;76.34;100749.66;4969277;28;20054;-74
2023/11/15 03:46:22;;;;;;;0.75;0.47;;;;;;;2.93;76.36;100750.50;4969507;28;20515;-74
2023/11/15 03:48:49;;;;;;;0.45;0.40;;;;;;;2.92;76.48;100756.53;4967734;28;20061;-73
2023/11/15 03:51:17;;;;;;;0.80;0.43;;;;;;;2.91;76.43;100753.09;4970875;28;20141;-81
2023/11/15 03:53:44;;;;;;;1.00;0.40;;;;;;;2.92;76.38;100756.53;4968665;28;20472;-82
2023/11/15 03:56:11;;;;;;;0.45;0.40;;;;;;;2.92;76.60;100759.97;4974387;28;20551;-82
2023/11/15 03:58:40;;;;;;;0.75;0.40;;;;;;;2.90;76.57;100753.06;4972197;28;20042;-81
2023/11/15 04:01:08;;;;;;;0.75;0.40;;;;;;;2.93;76.66;100760.84;4972451;28;20510;-82
2023/11/15 04:03:34;;;;;;;1.05;0.30;;;;;;;2.91;76.56;100754.81;4970195;28;20090;-82
2023/11/15 04:06:03;;;;;;;1.17;0.40;;;;;;;2.93;76.52;100754.00;4964995;28;20051;-81
2023/11/15 04:08:32;;;;;;;0.52;0.40;;;;;;;2.93;76.53;100753.09;4971505;28;20094;-81
2023/11/15 04:10:59;;;;;;;1.90;0.50;;;;;;;2.93;76.69;100760.84;4969179;28;20050;-82
2023/11/15 04:13:26;;;;;;;0.40;0.30;;;;;;;2.94;76.83;100762.59;4968272;28;20141;-82
2023/11/15 04:15:54;;;;;;;0.52;0.40;;;;;;;2.91;76.61;100760.84;4969685;28;20156;-81
2023/11/15 04:18:22;;;;;;;0.90;0.50;;;;;;;2.93;76.48;100755.69;4969181;28;20078;-82
2023/11/15 04:20:49;;;;;;;1.17;0.40;;;;;;;2.92;76.82;100774.59;4967121;28;20464;-82
2023/11/15 04:23:16;;;;;;;1.63;0.63;;;;;;;2.92;76.74;100767.72;4971656;28;20484;-81
2023/11/15 04:25:44;;;;;;;1.05;0.52;;;;;;;2.93;76.64;100772.03;4969572;28;20050;-81
2023/11/15 04:28:12;;;;;;;2.53;0.50;;;;;;;2.90;76.72;100777.16;4970523;28;20133;-81
2023/11/15 04:30:39;;;;;;;0.70;0.40;;;;;;;2.93;76.55;100776.31;4973039;28;20057;-82
2023/11/15 04:33:06;;;;;;;5.15;0.55;;;;;;;2.92;76.76;100780.63;4964849;28;20514;-82
2023/11/15 04:35:33;;;;;;;0.88;0.57;;;;;;;2.93;76.58;100787.53;4966898;28;20113;-82
2023/11/15 04:38:00;;;;;;;1.02;0.40;;;;;;;2.89;76.86;100777.13;4966130;28;20054;-81
2023/11/15 04:40:30;;;;;;;1.00;0.55;;;;;;;2.95;76.95;100784.09;4971373;28;20043;-82
2023/11/15 04:42:58;;;;;;;3.58;0.68;;;;;;;2.93;76.79;100779.78;4966763;28;20047;-82
2023/11/15 04:45:25;;;;;;;3.25;0.95;;;;;;;2.93;76.72;100790.09;4972042;28;20047;-81
2023/11/15 04:47:52;;;;;;;0.60;0.43;;;;;;;2.95;76.71;100784.09;4970089;28;20130;-82
2023/11/15 04:50:19;;;;;;;1.67;0.50;;;;;;;2.93;76.90;100782.38;4969028;28;20044;-82
2023/11/15 04:52:46;;;;;;;1.05;0.60;;;;;;;2.93;76.72;100784.94;4971749;28;20051;-71
2023/11/15 04:55:13;;;;;;;4.47;0.50;;;;;;;2.91;76.44;100790.94;4968932;28;20718;-72
2023/11/15 04:57:40;;;;;;;1.10;0.60;;;;;;;2.95;76.98;100784.09;4967840;28;20058;-71
2023/11/15 05:00:11;;;;;;;2.38;0.85;;;;;;;2.95;76.95;100794.41;4967560;28;20053;-71
2023/11/15 05:02:38;;;;;;;1.13;0.50;;;;;;;2.95;76.97;100791.84;4969823;28;20066;-74
2023/11/15 05:05:05;;;;;;;1.90;0.90;;;;;;;2.93;76.85;100795.28;4971055;28;20055;-74
2023/11/15 05:07:33;;;;;;;1.00;0.63;;;;;;;2.93;77.17;100797.84;4970849;28;20053;-74
2023/11/15 05:10:02;;;;;;;2.97;0.63;;;;;;;2.93;76.88;100803.00;4971634;28;20038;-74
2023/11/15 05:12:29;;;;;;;1.65;0.55;;;;;;;2.94;76.90;100803.88;4970422;28;20050;-74
2023/11/15 05:14:56;;;;;;;2.38;0.80;;;;;;;2.95;76.84;100802.16;4973883;28;20053;-74
2023/11/15 05:17:24;;;;;;;0.75;0.63;;;;;;;2.94;76.98;100809.03;4971496;28;20134;-74
2023/11/15 05:19:51;;;;;;;1.77;0.50;;;;;;;2.93;76.64;100815.91;4972983;28;20057;-74
2023/11/15 05:22:18;;;;;;;1.13;0.52;;;;;;;2.95;76.68;100815.06;4971296;28;20411;-74
2023/11/15 05:24:45;;;;;;;1.35;0.50;;;;;;;2.95;77.01;100809.88;4971948;28;20057;-74
2023/11/15 05:27:12;;;;;;;1.58;0.80;;;;;;;2.95;77.10;100821.06;4968335;28;20043;-75
2023/11/15 05:29:39;;;;;;;1.13;0.50;;;;;;;2.95;76.97;100818.50;4969650;28;20077;-74
2023/11/15 05:32:06;;;;;;;0.98;0.60;;;;;;;2.96;76.94;100817.66;4970462;28;20714;-79
2023/11/15 05:34:35;;;;;;;1.05;0.55;;;;;;;2.96;76.81;100819.34;4971310;28;20070;-74
2023/11/15 05:37:01;;;;;;;1.23;0.63;;;;;;;2.96;76.92;100820.25;4971820;28;20049;-74
2023/11/15 05:39:28;;;;;;;0.98;0.60;;;;;;;2.96;76.79;100819.34;4972062;28;20046;-74
2023/11/15 05:41:56;;;;;;;1.38;0.50;;;;;;;2.92;76.93;100811.56;4971847;28;20101;-75
2023/11/15 05:44:23;;;;;;;0.80;0.60;;;;;;;2.96;76.92;100819.34;4972172;28;20053;-74
2023/11/15 05:46:50;;;;;;;2.00;0.60;;;;;;;2.97;76.85;100823.69;4972239;28;20093;-74
2023/11/15 05:49:16;;;;;;;0.90;0.52;;;;;;;2.96;76.91;100819.34;4972834;28;20525;-74
2023/11/15 05:51:45;;;;;;;2.35;0.50;;;;;;;2.95;77.16;100818.50;4972709;28;20153;-76
2023/11/15 05:54:12;;;;;;;0.82;0.60;;;;;;;2.96;77.24;100824.53;4971011;28;20061;-76
2023/11/15 05:56:39;;;;;;;0.68;0.40;;;;;;;2.96;77.10;100829.69;4969529;28;20046;-74
2023/11/15 05:59:06;;;;;;;0.90;0.50;;;;;;;2.96;77.09;100824.53;4968594;28;20047;-75
2023/11/15 06:01:36;;;;;;;1.05;0.52;;;;;;;2.95;76.88;100820.22;4970163;28;20420;-84
2023/11/15 06:04:03;;;;;;;0.47;0.32;;;;;;;2.96;77.13;100830.56;4976027;28;20555;-83
2023/11/15 06:06:30;;;;;;;0.70;0.55;;;;;;;2.97;77.29;100834.88;4970685;28;20057;-81
2023/11/15 06:08:59;;;;;;;0.60;0.50;;;;;;;2.96;77.32;100828.00;4972220;28;20073;-83
2023/11/15 06:11:26;;;;;;;1.23;0.50;;;;;;;2.96;77.24;100840.91;4975516;28;20065;-84
2023/11/15 06:13:52;;;;;;;1.10;0.60;;;;;;;2.97;77.36;100837.44;4971772;28;20051;-83
2023/11/15 06:16:19;;;;;;;1.08;0.50;;;;;;;2.98;77.32;100838.31;4976148;28;20046;-83
2023/11/15 06:18:46;;;;;;;0.82;0.60;;;;;;;2.95;77.24;100833.97;4974310;28;20129;-84
2023/11/15 06:21:13;;;;;;;0.70;0.50;;;;;;;2.98;77.29;100839.19;4971391;28;20049;-84
2023/11/15 06:23:40;;;;;;;0.75;0.40;;;;;;;2.99;77.24;100847.78;4976223;28;20047;-83
2023/11/15 06:26:11;;;;;;;2.00;0.50;;;;;;;2.98;77.40;100846.06;4975253;28;20047;-84
2023/11/15 06:28:38;;;;;;;2.22;0.40;;;;;;;3.00;77.45;100852.13;4971362;28;20122;-85
2023/11/15 06:31:06;;;;;;;1.85;0.40;;;;;;;3.01;77.23;100859.00;4972370;28;20047;-85
2023/11/15 06:33:33;;;;;;;0.85;0.40;;;;;;;3.00;77.39;100860.72;4975128;28;20083;-85
2023/11/15 06:36:01;;;;;;;0.65;0.50;;;;;;;3.02;77.27;100856.44;4968803;28;20050;-85
2023/11/15 06:38:28;;;;;;;0.70;0.57;;;;;;;3.02;77.65;100866.78;4975549;28;20063;-84
2023/11/15 06:40:54;;;;;;;1.10;0.50;;;;;;;3.03;77.48;100860.75;4963464;28;20134;-87
2023/11/15 06:43:23;;;;;;;0.80;0.55;;;;;;;3.04;77.47;100862.47;4970858;28;20249;-84
2023/11/15 06:45:50;;;;;;;0.90;0.40;;;;;;;3.03;77.46;100863.34;4974410;28;20121;-86
2023/11/15 06:48:17;;;;;;;2.50;0.43;;;;;;;2.98;77.79;100852.06;4972777;28;20059;-85
2023/11/15 06:50:44;;;;;;;0.80;0.50;;;;;;;3.06;77.77;100867.69;4976407;28;20068;-84
2023/11/15 06:53:13;;;;;;;1.33;0.60;;;;;;;3.06;77.73;100863.38;4976462;28;20089;-85
2023/11/15 06:55:39;;;;;;;2.00;0.50;;;;;;;3.07;77.67;100869.41;4976420;28;20051;-85
2023/11/15 06:58:08;;;;;;;0.70;0.40;;;;;;;3.07;77.66;100866.81;4974254;28;20053;-86
2023/11/15 07:00:36;;;;;;;0.75;0.50;;;;;;;3.00;77.87;100859.84;4976119;28;20043;-86
2023/11/15 07:03:03;;;;;;;1.10;0.60;;;;;;;3.09;77.62;100868.56;4966943;28;20047;-85
2023/11/15 07:05:32;;;;;;;0.47;0.40;;;;;;;2.99;77.71;100860.69;4974922;28;20668;-86
2023/11/15 07:07:59;;;;;;;2.58;0.60;;;;;;;3.11;77.54;100878.94;4968688;28;20049;-86
2023/11/15 07:10:27;;;;;;;1.90;0.50;;;;;;;3.11;77.64;100881.53;4975608;28;20054;-86
2023/11/15 07:12:54;;;;;;;2.00;0.70;;;;;;;3.11;77.63;100897.00;4972130;28;20070;-73
2023/11/15 07:15:23;;;;;;;0.95;0.70;;;;;;;3.09;78.09;100891.81;4971763;28;20054;-74
2023/11/15 07:17:52;;;;;;;1.20;0.60;;;;;;;3.12;77.74;100898.72;4971286;28;20074;-73
2023/11/15 07:20:21;;;;;;;1.15;0.40;;;;;;;3.14;77.56;100899.63;4969254;28;20050;-73
2023/11/15 07:22:48;;;;;;;1.60;0.70;;;;;;;3.14;77.78;100902.22;4968122;28;20043;-74
2023/11/15 07:25:18;;;;;;;1.55;0.40;;;;;;;3.16;77.86;100905.69;4969890;28;20054;-74
2023/11/15 07:27:44;;;;;;;1.25;0.60;;;;;;;3.14;77.86;100903.06;4969716;28;20812;-73
2023/11/15 07:30:13;;;;;;;1.42;0.50;;;;;;;3.16;77.76;100913.44;4968261;28;20054;-74
2023/11/15 07:32:41;;;;;;;2.00;0.60;;;;;;;3.17;77.69;100911.72;4967967;28;20134;-73
2023/11/15 07:35:10;;;;;;;1.63;0.70;;;;;;;3.17;77.71;100909.13;4967632;28;20071;-75
2023/11/15 07:37:37;;;;;;;1.40;0.70;;;;;;;3.12;77.85;100906.47;4967068;28;20758;-73
2023/11/15 07:40:10;;;;;;;3.10;0.93;;;;;;;3.20;77.85;100919.50;4968827;28;20077;-72
2023/11/15 07:42:37;;;;;;;2.33;0.93;;;;;;;3.21;78.00;100924.66;4968207;28;20051;-72
2023/11/15 07:45:05;;;;;;;2.50;0.80;;;;;;;3.21;77.88;100921.22;4970382;28;20054;-73
2023/11/15 07:47:34;;;;;;;3.90;0.60;;;;;;;3.22;77.85;100926.41;4969952;28;20047;-73
2023/11/15 07:50:02;;;;;;;1.85;0.90;;;;;;;3.23;77.96;100924.69;4969312;28;20493;-73
2023/11/15 07:52:31;;;;;;;3.28;0.60;;;;;;;3.23;77.95;100932.44;4968661;28;20845;-72
2023/11/15 07:54:58;;;;;;;0.93;0.60;;;;;;;3.24;77.81;100945.34;4969836;28;20051;-74
2023/11/15 07:57:25;;;;;;;1.95;0.77;;;;;;;3.25;77.80;100946.25;4968736;28;20174;-73
2023/11/15 07:59:52;;;;;;;1.20;0.70;;;;;;;3.22;78.09;100947.06;4967975;28;20051;-73
2023/11/15 08:02:19;;;;;;;1.23;0.63;;;;;;;3.26;77.95;100947.97;4968844;28;20397;-74
2023/11/15 08:04:46;;;;;;;4.35;1.10;;;;;;;3.27;77.73;100954.84;4969845;28;20054;-73
2023/11/15 08:07:13;;;;;;;1.98;0.85;;;;;;;3.28;78.07;100962.63;4968699;28;20094;-73
2023/11/15 08:09:41;;;;;;;0.85;0.73;;;;;;;3.29;78.05;100964.38;4968287;28;20109;-74
2023/11/15 08:12:09;;;;;;;1.40;0.77;;;;;;;3.26;78.26;100956.56;4969636;28;20046;-74
2023/11/15 08:14:36;;;;;;;3.25;0.80;;;;;;;3.32;77.87;100963.53;4969261;28;20142;-73
2023/11/15 08:17:03;;;;;;;1.83;0.90;;;;;;;3.32;77.82;100974.72;4969946;28;20061;-74
2023/11/15 08:19:30;;;;;;;1.75;0.80;;;;;;;3.32;78.03;100969.56;4967176;28;20050;-73
2023/11/15 08:21:57;;;;;;;2.50;0.73;;;;;;;3.33;77.95;100973.91;4969532;28;20580;-75
2023/11/15 08:24:25;;;;;;;3.58;0.70;;;;;;;3.35;77.92;100979.06;4970021;28;20053;-74
2023/11/15 08:26:54;;;;;;;0.80;0.40;;;;;;;3.37;77.78;100979.97;4968480;28;20060;-74
2023/11/15 08:29:22;;;;;;;2.92;0.50;;;;;;;3.36;78.09;100983.41;4969356;28;20412;-74
2023/11/15 08:31:49;;;;;;;1.77;0.70;;;;;;;3.38;77.88;100987.72;4971072;28;20051;-82
2023/11/15 08:34:16;;;;;;;1.20;0.50;;;;;;;3.35;77.89;100973.91;4971007;28;20070;-82
2023/11/15 08:36:44;;;;;;;1.70;1.13;;;;;;;3.38;77.85;100992.88;4969325;28;20043;-82
2023/11/15 08:39:12;;;;;;;3.80;0.80;;;;;;;3.38;77.68;100990.31;4970569;28;20089;-82
2023/11/15 08:41:41;;;;;;;6.07;0.90;;;;;;;3.41;77.92;100993.78;4963416;28;20061;-82
2023/11/15 08:44:09;;;;;;;3.15;0.98;;;;;;;3.41;78.06;100991.22;4964280;28;20050;-81
2023/11/15 08:46:42;;;;;;;9.27;1.65;;;;;;;3.35;77.89;100990.25;4968350;28;20558;-82
2023/11/15 08:49:15;;;;;;;1.42;0.50;;;;;;;3.43;78.02;101003.28;4966218;28;20053;-83
2023/11/15 08:51:42;;;;;;;1.23;0.60;;;;;;;3.43;77.82;101007.59;4969164;28;20048;-82
2023/11/15 08:54:09;;;;;;;2.88;0.50;;;;;;;3.43;77.95;101013.63;4969458;28;20129;-82
2023/11/15 08:56:38;;;;;;;3.70;0.77;;;;;;;3.36;77.86;101007.50;4973605;28;20054;-82
2023/11/15 08:59:06;;;;;;;5.25;0.75;;;;;;;3.44;77.45;101015.34;4969237;28;20055;-82
2023/11/15 09:01:35;;;;;;;1.05;0.70;;;;;;;3.45;77.87;101022.28;4974011;28;20058;-82
2023/11/15 09:04:01;;;;;;;0.88;0.50;;;;;;;3.46;77.98;101018.84;4970499;28;20045;-83
2023/11/15 09:06:28;;;;;;;1.85;1.20;;;;;;;3.42;77.94;101005.88;4973405;28;20047;-82
2023/11/15 09:08:55;;;;;;;7.65;0.73;;;;;;;3.47;77.94;101017.13;4963328;28;20083;-82
2023/11/15 09:11:22;;;;;;;2.30;0.85;;;;;;;3.49;77.95;101020.59;4969315;28;20051;-82
2023/11/15 09:13:49;;;;;;;4.07;0.57;;;;;;;3.47;77.92;101022.28;4971341;28;20058;-82
2023/11/15 09:16:19;;;;;;;3.33;0.60;;;;;;;3.49;77.90;101023.19;4972844;28;20058;-82
2023/11/15 09:18:48;;;;;;;3.80;0.70;;;;;;;3.49;77.81;101018.00;4971397;28;20448;-81
2023/11/15 09:21:15;;;;;;;3.15;0.70;;;;;;;3.49;77.86;101023.19;4973563;28;20050;-81
2023/11/15 09:23:43;;;;;;;1.98;0.40;;;;;;;3.48;78.25;101026.63;4972587;28;20050;-81
2023/11/15 09:26:16;;;;;;;4.22;0.60;;;;;;;3.49;77.83;101033.50;4969886;28;20101;-79
2023/11/15 09:28:43;;;;;;;5.18;0.45;;;;;;;3.49;77.66;101033.50;4968708;28;20411;-78
2023/11/15 09:31:12;;;;;;;6.30;0.50;;;;;;;3.49;77.91;101033.50;4966354;28;20551;-77
2023/11/15 09:33:39;;;;;;;1.33;0.40;;;;;;;3.50;77.82;101035.22;4973375;28;20175;-81
2023/11/15 09:36:10;;;;;;;5.07;0.43;;;;;;;3.49;77.83;101039.53;4970291;28;20422;-79
2023/11/15 09:38:37;;;;;;;5.60;0.50;;;;;;;3.51;77.93;101047.31;4966605;28;20742;-81
2023/11/15 09:41:11;;;;;;;2.58;0.60;;;;;;;3.51;77.88;101042.16;4966598;28;20051;-82
2023/11/15 09:43:39;;;;;;;0.80;0.70;;;;;;;3.53;77.99;101045.59;4965599;28;20167;-74
2023/11/15 09:46:09;;;;;;;0.85;0.55;;;;;;;3.53;77.93;101053.34;4965468;28;20089;-74
2023/11/15 09:48:38;;;;;;;0.98;0.60;;;;;;;3.51;77.70;101052.50;4967429;28;20051;-74
2023/11/15 09:51:09;;;;;;;0.50;0.40;;;;;;;3.54;77.83;101047.38;4973101;28;20057;-74
2023/11/15 09:53:36;;;;;;;0.55;0.38;;;;;;;3.55;77.99;101051.69;4972168;28;20061;-79
2023/11/15 09:56:04;;;;;;;0.68;0.30;;;;;;;3.50;77.85;101046.47;4972419;28;20047;-74
2023/11/15 09:58:32;;;;;;;0.95;0.50;;;;;;;3.54;77.70;101052.53;4969787;28;20550;-75
2023/11/15 10:01:01;;;;;;;0.93;0.40;;;;;;;3.55;77.90;101059.41;4972858;28;20130;-76
2023/11/15 10:03:27;;;;;;;2.70;0.40;;;;;;;3.52;78.03;101054.22;4971729;28;20054;-75
2023/11/15 10:05:59;;;;;;;5.93;0.38;;;;;;;3.55;77.75;101065.44;4973195;28;20150;-75
2023/11/15 10:08:28;;;;;;;0.50;0.30;;;;;;;3.56;77.88;101061.19;4969892;28;20083;-76
2023/11/15 10:11:09;;;;;;;0.55;0.30;;;;;;;3.57;77.70;101063.78;4972597;28;20053;-75
2023/11/15 10:13:37;;;;;;;8.77;0.35;;;;;;;3.55;77.87;101062.88;4972198;28;20047;-75
2023/11/15 10:16:22;;;;;;;0.40;0.25;;;;;;;3.58;77.63;101074.97;4970013;28;20038;-75
2023/11/15 10:18:49;;;;;;;0.90;0.30;;;;;;;3.58;77.73;101069.78;4972468;28;20047;-74
2023/11/15 10:21:16;;;;;;;0.95;0.30;;;;;;;3.56;77.70;101072.38;4973551;28;20047;-76
2023/11/15 10:23:45;;;;;;;0.40;0.20;;;;;;;3.59;77.46;101071.56;4971011;28;20054;-74
2023/11/15 10:26:13;;;;;;;0.40;0.30;;;;;;;3.58;77.59;101070.66;4971382;28;20102;-74
2023/11/15 10:28:40;;;;;;;0.63;0.35;;;;;;;3.60;77.59;101083.63;4971454;28;20065;-74
2023/11/15 10:31:12;;;;;;;1.73;0.60;;;;;;;3.62;77.64;101083.66;4973419;28;20061;-76
2023/11/15 10:33:43;;;;;;;0.52;0.30;;;;;;;3.60;77.60;101081.03;4971209;28;20070;-75
2023/11/15 10:36:16;;;;;;;0.50;0.40;;;;;;;3.62;77.64;101087.09;4968870;28;20102;-76
2023/11/15 10:38:46;;;;;;;1.08;0.40;;;;;;;3.62;77.58;101079.34;4970436;28;20129;-76
2023/11/15 10:41:17;;;;;;;0.47;0.30;;;;;;;3.62;77.84;101084.50;4969173;28;20054;-80
2023/11/15 10:43:46;;;;;;;0.30;0.20;;;;;;;3.63;77.56;101090.53;4964526;28;20050;-80
2023/11/15 10:46:16;;;;;;;4.97;0.50;;;;;;;3.61;77.56;101090.50;4972194;28;20058;-90
2023/11/15 10:48:47;;;;;;;1.08;0.30;;;;;;;3.63;77.62;101088.81;4968932;28;20075;-79
2023/11/15 10:51:22;;;;;;;2.67;0.40;;;;;;;3.63;77.58;101096.56;4969412;28;20109;-83
2023/11/15 10:53:50;;;;;;;1.70;0.30;;;;;;;3.61;77.55;101090.50;4974599;28;20102;-78
2023/11/15 10:56:22;;;;;;;2.47;0.28;;;;;;;3.61;77.46;101090.50;4975411;28;20042;-82
2023/11/15 10:58:50;;;;;;;4.05;0.40;;;;;;;3.62;77.48;101092.25;4971957;28;20130;-86
2023/11/15 11:01:18;;;;;;;0.50;0.32;;;;;;;3.59;77.57;101097.38;4974085;28;20046;-79
2023/11/15 11:03:49;;;;;;;0.68;0.30;;;;;;;3.63;77.58;101104.31;4971515;28;20571;-91
2023/11/15 11:06:24;;;;;;;2.15;0.30;;;;;;;3.65;77.59;101112.97;4972759;28;20547;-86
2023/11/15 11:09:09;;;;;;;0.40;0.30;;;;;;;3.64;77.38;101111.22;4974498;28;20105;-85
2023/11/15 11:11:43;;;;;;;1.52;0.38;;;;;;;3.60;77.47;101106.88;4972571;28;20055;-85
2023/11/15 11:14:20;;;;;;;0.40;0.30;;;;;;;3.65;77.50;101115.56;4973800;28;20062;-85
2023/11/15 11:16:49;;;;;;;0.60;0.20;;;;;;;3.66;77.45;101127.63;4976573;28;20291;-87
2023/11/15 11:19:21;;;;;;;4.32;0.40;;;;;;;3.60;77.78;101115.47;4965787;28;20051;-87
2023/11/15 11:22:04;;;;;;;0.35;0.20;;;;;;;3.68;77.74;101117.31;4968189;28;20074;-86
2023/11/15 11:24:34;;;;;;;3.00;0.28;;;;;;;3.67;77.95;101131.97;4961623;28;20121;-87
2023/11/15 11:27:30;;;;;;;0.65;0.30;;;;;;;3.69;77.78;101124.22;4974050;28;20105;-86
2023/11/15 11:30:20;;;;;;;0.35;0.20;;;;;;;3.68;77.79;101118.19;4966762;28;20059;-86
2023/11/15 11:32:49;;;;;;;0.30;0.20;;;;;;;3.68;78.04;101118.19;4969274;28;20062;-87
2023/11/15 11:35:30;;;;;;;1.75;0.35;;;;;;;3.71;77.85;101127.69;4973460;28;20050;-86
2023/11/15 11:37:59;;;;;;;0.55;0.30;;;;;;;3.71;77.97;101131.16;4971406;28;20097;-87
2023/11/15 11:40:33;;;;;;;1.15;0.30;;;;;;;3.72;77.85;101126.84;4967429;28;20047;-87